Time;durP1;ratioP1;P1;durP2;ratioP2;P2;SDS_P1;SDS_P2;PMS_P1;PMS_P2;Temp;Humidity;BMP_temperature;BMP_pressure;BME280_temperature;BME280_humidity;BME280_pressure;Samples;Min_cycle;Max_cycle;Signal;HPM_P1;HPM_P2
2022/07/15 00:00:14;;;;;;;5.85;2.38;;;;;;;18.35;60.21;101918.25;7386385;19;20018;-62
2022/07/15 00:02:41;;;;;;;6.82;2.33;;;;;;;18.24;60.87;101926.44;7385646;19;20152;-58
2022/07/15 00:05:09;;;;;;;4.30;2.10;;;;;;;18.26;60.55;101921.25;7386784;19;20019;-62
2022/07/15 00:07:37;;;;;;;5.03;2.30;;;;;;;18.24;60.51;101926.44;7385199;19;20060;-63
2022/07/15 00:10:14;;;;;;;6.18;2.30;;;;;;;18.24;60.58;101926.44;7387204;19;20520;-60
2022/07/15 00:12:43;;;;;;;5.82;1.83;;;;;;;18.21;60.38;101915.94;7387006;19;20018;-60
2022/07/15 00:15:13;;;;;;;4.13;2.53;;;;;;;18.20;60.32;101917.94;7384096;19;20019;-61
2022/07/15 00:17:41;;;;;;;6.25;2.17;;;;;;;18.15;60.74;101920.22;7383235;19;20491;-61
2022/07/15 00:20:11;;;;;;;4.25;1.65;;;;;;;18.19;60.48;101921.09;7383775;19;20094;-60
2022/07/15 00:22:39;;;;;;;7.63;3.65;;;;;;;18.10;60.81;101917.72;7383146;19;20015;-61
2022/07/15 00:25:08;;;;;;;7.10;2.03;;;;;;;18.02;60.70;101922.34;7384086;19;20015;-59
2022/07/15 00:27:49;;;;;;;4.72;2.22;;;;;;;17.98;61.07;101915.84;7388530;19;20070;-61
2022/07/15 00:30:17;;;;;;;5.28;2.30;;;;;;;17.91;61.37;101915.69;7385661;19;20018;-60
2022/07/15 00:32:44;;;;;;;8.13;2.72;;;;;;;17.85;61.35;101907.94;7381812;19;20015;-61
2022/07/15 00:35:12;;;;;;;5.50;2.33;;;;;;;17.79;61.32;101912.22;7386679;19;20018;-59
2022/07/15 00:37:40;;;;;;;5.90;2.20;;;;;;;17.71;61.49;101902.03;7381058;19;20033;-62
2022/07/15 00:40:08;;;;;;;5.70;2.40;;;;;;;17.56;62.36;101892.47;7381509;19;20440;-60
2022/07/15 00:42:44;;;;;;;4.80;2.30;;;;;;;17.56;62.13;101898.91;7384755;19;20607;-61
2022/07/15 00:45:23;;;;;;;5.53;2.45;;;;;;;17.54;62.66;101892.84;7385915;19;20487;-62
2022/07/15 00:47:54;;;;;;;4.40;2.33;;;;;;;17.54;62.39;101890.06;7384799;19;20051;-60
2022/07/15 00:50:24;;;;;;;6.60;3.00;;;;;;;17.53;62.49;101893.19;7388035;19;20018;-60
2022/07/15 00:53:02;;;;;;;3.83;2.97;;;;;;;17.51;62.68;101887.94;7381110;19;20548;-60
2022/07/15 00:55:31;;;;;;;7.18;2.22;;;;;;;17.50;62.82;101891.13;7382250;19;20522;-62
2022/07/15 00:58:04;;;;;;;7.03;2.40;;;;;;;17.42;63.43;101887.31;7384618;19;20022;-62
2022/07/15 01:00:32;;;;;;;8.00;2.42;;;;;;;17.44;62.88;101873.78;7384997;19;20015;-62
2022/07/15 01:03:01;;;;;;;7.35;2.55;;;;;;;17.49;62.80;101887.50;7383233;19;20014;-63
2022/07/15 01:05:29;;;;;;;7.82;2.67;;;;;;;17.48;62.77;101877.47;7387019;19;20109;-62
2022/07/15 01:07:57;;;;;;;7.53;2.38;;;;;;;17.48;62.83;101880.28;7385290;19;21627;-62
2022/07/15 01:10:25;;;;;;;10.90;2.28;;;;;;;17.47;62.78;101877.84;7384376;19;20845;-61
2022/07/15 01:12:53;;;;;;;5.82;2.22;;;;;;;17.42;63.04;101876.13;7380301;19;20045;-63
2022/07/15 01:15:26;;;;;;;4.82;2.10;;;;;;;17.38;62.99;101869.63;7384837;19;20010;-60
2022/07/15 01:17:55;;;;;;;8.43;2.47;;;;;;;17.30;63.06;101872.63;7383824;19;20022;-60
2022/07/15 01:20:24;;;;;;;4.00;2.72;;;;;;;17.29;63.29;101857.81;7386227;19;20025;-60
2022/07/15 01:23:01;;;;;;;6.07;2.55;;;;;;;17.25;63.16;101856.94;7381168;19;20022;-61
2022/07/15 01:25:36;;;;;;;5.15;2.30;;;;;;;17.20;63.47;101854.41;7379533;19;20608;-60
2022/07/15 01:28:08;;;;;;;8.02;3.00;;;;;;;17.15;63.84;101849.09;7382141;19;20027;-61
2022/07/15 01:30:36;;;;;;;10.07;4.10;;;;;;;17.13;63.62;101848.63;7384577;19;20082;-60
2022/07/15 01:33:04;;;;;;;4.80;2.17;;;;;;;17.12;64.25;101849.81;7380066;19;20078;-60
2022/07/15 01:35:32;;;;;;;7.07;2.30;;;;;;;17.10;63.93;101843.78;7381750;19;20052;-60
2022/07/15 01:38:00;;;;;;;9.32;4.10;;;;;;;17.10;63.93;101841.00;7382152;19;20023;-61
2022/07/15 01:40:28;;;;;;;4.03;2.45;;;;;;;17.13;64.41;101839.44;7382389;19;20018;-62
2022/07/15 01:42:56;;;;;;;6.47;2.30;;;;;;;17.14;64.12;101835.44;7382142;19;20389;-61
2022/07/15 01:45:23;;;;;;;6.68;2.80;;;;;;;17.15;64.01;101839.88;7380462;19;20050;-63
2022/07/15 01:47:53;;;;;;;9.25;2.75;;;;;;;17.17;64.00;101837.53;7380224;19;20018;-60
2022/07/15 01:50:39;;;;;;;6.10;2.35;;;;;;;17.14;64.02;101841.88;7385429;19;20021;-61
2022/07/15 01:53:11;;;;;;;5.93;3.33;;;;;;;17.11;64.35;101837.00;7379191;19;20026;-60
2022/07/15 01:55:40;;;;;;;7.25;2.53;;;;;;;17.07;64.34;101830.50;7380709;19;20030;-62
2022/07/15 01:58:08;;;;;;;4.50;2.13;;;;;;;17.00;64.34;101824.72;7380360;19;20491;-61
2022/07/15 02:00:36;;;;;;;5.40;2.38;;;;;;;16.95;64.77;101833.41;7381491;19;20658;-60
2022/07/15 02:03:04;;;;;;;4.25;2.45;;;;;;;16.85;65.21;101825.56;7381605;19;20022;-60
2022/07/15 02:05:31;;;;;;;2.90;2.00;;;;;;;16.84;65.44;101829.50;7388227;19;20022;-59
2022/07/15 02:08:00;;;;;;;7.45;2.55;;;;;;;16.80;65.37;101817.44;7389050;19;20026;-60
2022/07/15 02:10:39;;;;;;;4.88;2.47;;;;;;;16.81;65.68;101816.28;7391075;19;20019;-60
2022/07/15 02:13:13;;;;;;;5.03;2.70;;;;;;;16.79;65.60;101813.00;7390190;19;20022;-60
2022/07/15 02:15:44;;;;;;;6.93;2.25;;;;;;;16.77;65.85;101810.59;7390422;19;20056;-61
2022/07/15 02:18:12;;;;;;;8.52;2.55;;;;;;;16.81;65.84;101813.47;7387970;19;20048;-60
2022/07/15 02:20:40;;;;;;;7.15;3.10;;;;;;;16.80;65.90;101820.25;7389028;19;20029;-60
2022/07/15 02:23:08;;;;;;;8.68;2.30;;;;;;;16.75;66.31;101807.34;7388266;19;20598;-61
2022/07/15 02:25:35;;;;;;;7.70;2.95;;;;;;;16.76;66.05;101814.53;7389202;19;20015;-60
2022/07/15 02:28:05;;;;;;;4.45;2.10;;;;;;;16.80;66.24;101814.66;7386132;19;20043;-63
2022/07/15 02:30:35;;;;;;;3.97;2.40;;;;;;;16.73;66.49;101811.69;7388238;19;20018;-60
2022/07/15 02:33:04;;;;;;;6.35;2.17;;;;;;;16.79;66.25;101813.00;7385805;19;20102;-60
2022/07/15 02:35:33;;;;;;;4.85;2.28;;;;;;;16.80;66.13;101817.44;7387126;19;20022;-62
2022/07/15 02:38:01;;;;;;;3.35;2.42;;;;;;;16.75;66.27;101812.94;7385022;19;20018;-61
2022/07/15 02:40:33;;;;;;;7.03;2.33;;;;;;;16.77;66.32;101815.38;7389742;19;20517;-61
2022/07/15 02:43:09;;;;;;;4.03;2.10;;;;;;;16.79;66.09;101818.59;7388140;19;20022;-61
2022/07/15 02:45:37;;;;;;;3.35;1.98;;;;;;;16.75;66.38;101815.75;7387384;19;20047;-61
2022/07/15 02:48:09;;;;;;;5.65;2.30;;;;;;;16.77;66.28;101815.38;7388093;19;20431;-62
2022/07/15 02:50:42;;;;;;;3.33;2.33;;;;;;;16.79;66.17;101815.81;7390275;19;20048;-60
2022/07/15 02:53:10;;;;;;;4.93;2.40;;;;;;;16.82;66.03;101806.69;7388178;19;20021;-62
2022/07/15 02:55:39;;;;;;;4.25;2.10;;;;;;;16.81;66.16;101813.47;7386905;19;20034;-60
2022/07/15 02:58:07;;;;;;;6.60;2.22;;;;;;;16.80;66.24;101820.25;7384128;19;20027;-59
2022/07/15 03:00:34;;;;;;;5.50;3.00;;;;;;;16.82;66.33;101803.91;7387767;19;20019;-61
2022/07/15 03:03:03;;;;;;;4.10;2.00;;;;;;;16.86;66.45;101816.00;7384388;19;20014;-59
2022/07/15 03:05:34;;;;;;;5.40;1.85;;;;;;;16.87;66.44;101815.63;7385510;19;20023;-60
2022/07/15 03:08:04;;;;;;;13.18;3.28;;;;;;;16.82;66.44;101806.69;7384170;19;20015;-63
2022/07/15 03:10:32;;;;;;;3.75;2.00;;;;;;;16.80;66.73;101804.28;7388273;19;20017;-61
2022/07/15 03:13:02;;;;;;;3.03;1.80;;;;;;;16.80;66.35;101801.47;7389127;19;20031;-60
2022/07/15 03:15:29;;;;;;;4.65;1.80;;;;;;;16.77;66.84;101793.81;7382809;19;20458;-63
2022/07/15 03:17:57;;;;;;;5.72;1.98;;;;;;;16.80;66.83;101797.88;7387324;19;20101;-59
2022/07/15 03:20:26;;;;;;;7.72;3.55;;;;;;;16.78;66.76;101798.25;7388874;19;20021;-63
2022/07/15 03:22:53;;;;;;;5.43;1.85;;;;;;;16.75;66.68;101798.13;7384960;19;20010;-61
2022/07/15 03:25:21;;;;;;;3.08;2.03;;;;;;;16.72;66.93;101796.06;7383551;19;20085;-61
2022/07/15 03:27:49;;;;;;;7.72;2.30;;;;;;;16.65;66.83;101798.69;7387300;19;20018;-62
2022/07/15 03:30:18;;;;;;;3.60;2.10;;;;;;;16.64;67.14;101794.25;7386166;19;20507;-61
2022/07/15 03:32:47;;;;;;;5.70;2.65;;;;;;;16.57;67.10;101799.69;7382821;19;20476;-59
2022/07/15 03:35:16;;;;;;;4.82;2.22;;;;;;;16.52;67.12;101799.91;7385704;19;20384;-62
2022/07/15 03:37:44;;;;;;;13.35;3.13;;;;;;;16.51;67.40;101806.66;7387008;19;20524;-63
2022/07/15 03:40:12;;;;;;;7.03;2.15;;;;;;;16.55;67.18;101804.81;7388734;19;20014;-59
2022/07/15 03:42:39;;;;;;;4.13;1.90;;;;;;;16.60;67.43;101796.94;7381098;19;20472;-60
2022/07/15 03:45:07;;;;;;;2.97;1.83;;;;;;;16.62;67.36;101802.19;7387696;19;20018;-62
2022/07/15 03:47:36;;;;;;;2.30;2.10;;;;;;;16.64;66.98;101797.06;7387603;19;20500;-61
2022/07/15 03:50:08;;;;;;;4.40;2.47;;;;;;;16.64;67.18;101795.06;7386789;19;20029;-62
2022/07/15 03:52:36;;;;;;;5.40;2.92;;;;;;;16.64;66.98;101791.47;7387854;19;20029;-61
2022/07/15 03:55:09;;;;;;;4.78;2.40;;;;;;;16.59;67.17;101789.75;7385533;19;20472;-61
2022/07/15 03:57:38;;;;;;;6.40;1.98;;;;;;;16.61;67.11;101783.78;7385499;19;20523;-61
2022/07/15 04:00:07;;;;;;;3.78;2.33;;;;;;;16.59;67.55;101781.38;7387019;19;20357;-62
2022/07/15 04:02:41;;;;;;;5.03;2.08;;;;;;;16.60;67.28;101788.56;7382240;19;20030;-62
2022/07/15 04:05:14;;;;;;;2.72;1.90;;;;;;;16.63;67.26;101782.25;7387425;19;20019;-61
2022/07/15 04:07:42;;;;;;;2.95;1.63;;;;;;;16.68;67.27;101778.41;7388138;19;20022;-61
2022/07/15 04:10:11;;;;;;;3.08;2.72;;;;;;;16.71;66.67;101772.88;7387791;19;20051;-60
2022/07/15 04:12:41;;;;;;;5.88;3.85;;;;;;;16.69;67.43;101774.41;7383842;19;20488;-60
2022/07/15 04:15:16;;;;;;;3.03;1.98;;;;;;;16.68;67.22;101772.81;7383721;19;20499;-60
2022/07/15 04:17:45;;;;;;;4.45;1.80;;;;;;;16.67;67.14;101776.75;7387847;19;20018;-63
2022/07/15 04:20:17;;;;;;;9.65;4.43;;;;;;;16.69;66.94;101775.22;7383105;19;20018;-63
2022/07/15 04:22:47;;;;;;;4.35;2.20;;;;;;;16.68;67.45;101775.59;7379024;19;20015;-62
2022/07/15 04:25:17;;;;;;;3.40;1.92;;;;;;;16.68;66.82;101778.41;7385202;19;20743;-62
2022/07/15 04:27:48;;;;;;;2.45;1.88;;;;;;;16.67;67.08;101772.00;7380983;19;20022;-62
2022/07/15 04:30:19;;;;;;;9.10;2.10;;;;;;;16.64;67.25;101781.09;7385877;19;20034;-62
2022/07/15 04:32:48;;;;;;;6.47;2.47;;;;;;;16.62;67.17;101785.44;7382914;19;20022;-62
2022/07/15 04:35:17;;;;;;;4.80;2.00;;;;;;;16.55;67.71;101774.84;7385448;19;20015;-63
2022/07/15 04:37:49;;;;;;;2.97;1.80;;;;;;;16.53;67.37;101790.38;7385119;19;20026;-61
2022/07/15 04:40:17;;;;;;;6.07;2.60;;;;;;;16.48;67.63;101782.22;7385732;19;20528;-65
2022/07/15 04:42:50;;;;;;;7.65;2.17;;;;;;;16.46;67.71;101777.00;7380706;19;21024;-62
2022/07/15 04:45:18;;;;;;;3.88;1.90;;;;;;;16.38;67.87;101770.41;7383156;19;20026;-61
2022/07/15 04:47:47;;;;;;;5.20;2.33;;;;;;;16.34;68.23;101777.06;7384566;19;20030;-63
2022/07/15 04:53:09;;;;;;;7.85;2.67;;;;;;;16.35;68.41;101771.13;7379317;19;20520;-62
2022/07/15 04:55:38;;;;;;;4.60;2.40;;;;;;;16.31;68.81;101764.63;7386633;19;20039;-59
2022/07/15 04:58:05;;;;;;;5.80;1.88;;;;;;;16.30;68.95;101774.19;7384882;19;20422;-62
2022/07/15 05:00:33;;;;;;;6.45;2.17;;;;;;;16.33;68.60;101770.69;7385861;19;20030;-61
2022/07/15 05:03:04;;;;;;;5.68;2.20;;;;;;;16.31;68.71;101764.63;7382290;19;20376;-60
2022/07/15 05:05:34;;;;;;;6.18;1.92;;;;;;;16.33;68.75;101772.66;7385032;19;20014;-58
2022/07/15 05:08:03;;;;;;;4.15;2.10;;;;;;;16.31;69.04;101759.03;7384161;19;20090;-60
2022/07/15 05:10:40;;;;;;;4.30;2.25;;;;;;;16.32;69.14;101766.25;7385084;19;20022;-60
2022/07/15 05:13:08;;;;;;;5.45;2.13;;;;;;;16.30;69.38;101768.63;7386072;19;20450;-61
2022/07/15 05:15:36;;;;;;;10.85;3.50;;;;;;;16.35;69.38;101775.91;7384952;19;20444;-61
2022/07/15 05:18:13;;;;;;;5.45;2.17;;;;;;;16.37;69.26;101760.41;7385705;19;20465;-60
2022/07/15 05:20:41;;;;;;;5.07;2.53;;;;;;;16.38;69.63;101776.00;7383895;19;20010;-61
2022/07/15 05:23:08;;;;;;;4.57;2.47;;;;;;;16.42;69.37;101782.50;7377752;19;20041;-59
2022/07/15 05:25:44;;;;;;;5.95;2.50;;;;;;;16.41;69.39;101780.84;7382068;19;20015;-60
2022/07/15 05:28:12;;;;;;;7.30;3.75;;;;;;;16.45;69.33;101756.63;7379806;19;20516;-61
2022/07/15 05:30:42;;;;;;;8.32;2.55;;;;;;;16.48;69.49;101768.25;7385026;19;20018;-59
2022/07/15 05:33:12;;;;;;;5.75;2.55;;;;;;;16.51;69.70;101761.94;7379773;19;20014;-60
2022/07/15 05:35:40;;;;;;;6.45;2.75;;;;;;;16.49;69.75;101758.69;7383309;19;20018;-60
2022/07/15 05:38:09;;;;;;;6.75;2.70;;;;;;;16.41;70.01;101755.69;7384556;19;20475;-62
2022/07/15 05:40:36;;;;;;;5.50;2.20;;;;;;;16.40;70.53;101745.72;7393150;19;20015;-58
2022/07/15 05:43:04;;;;;;;6.32;2.80;;;;;;;16.47;70.55;101752.66;7386828;19;20018;-61
2022/07/15 05:45:34;;;;;;;7.13;2.38;;;;;;;16.54;70.60;101764.06;7390426;19;20021;-61
2022/07/15 05:48:06;;;;;;;9.65;4.20;;;;;;;16.54;70.31;101753.69;7389986;19;20018;-61
2022/07/15 05:50:40;;;;;;;7.65;2.80;;;;;;;16.58;70.28;101764.94;7388945;19;20018;-63
2022/07/15 05:53:10;;;;;;;3.67;2.20;;;;;;;16.58;70.88;101764.94;7387119;19;20022;-63
2022/07/15 05:55:39;;;;;;;7.40;3.17;;;;;;;16.60;70.54;101771.00;7389629;19;20018;-60
2022/07/15 05:58:07;;;;;;;3.78;1.88;;;;;;;16.63;70.84;101764.66;7387972;19;20419;-62
2022/07/15 06:00:39;;;;;;;8.02;2.58;;;;;;;16.62;70.91;101772.25;7390405;19;20019;-58
2022/07/15 06:03:06;;;;;;;3.00;2.20;;;;;;;16.58;71.04;101767.72;7385155;19;20022;-60
2022/07/15 06:05:42;;;;;;;4.10;1.77;;;;;;;16.63;70.97;101767.47;7388416;19;20022;-61
2022/07/15 06:08:13;;;;;;;2.90;1.98;;;;;;;16.66;71.20;101775.13;7388456;19;20052;-61
2022/07/15 06:10:44;;;;;;;4.40;1.80;;;;;;;16.69;71.62;101771.63;7393411;19;20018;-60
2022/07/15 06:13:14;;;;;;;5.03;2.38;;;;;;;16.72;71.56;101770.91;7390011;19;20671;-62
2022/07/15 06:15:43;;;;;;;6.75;1.92;;;;;;;16.82;71.35;101773.13;7390363;19;20106;-60
2022/07/15 06:18:17;;;;;;;3.25;1.88;;;;;;;16.88;71.27;101771.69;7388962;19;20026;-62
2022/07/15 06:20:45;;;;;;;2.63;1.98;;;;;;;16.89;71.43;101774.13;7391611;19;20014;-61
2022/07/15 06:23:12;;;;;;;2.38;1.60;;;;;;;16.96;71.75;101774.31;7384327;19;20542;-60
2022/07/15 06:25:42;;;;;;;2.53;1.90;;;;;;;17.00;71.28;101779.97;7387659;19;20014;-61
2022/07/15 06:28:11;;;;;;;2.53;2.08;;;;;;;17.10;71.16;101787.81;7387448;19;20029;-62
2022/07/15 06:30:38;;;;;;;5.10;1.88;;;;;;;17.08;71.29;101784.56;7392586;19;20025;-59
2022/07/15 06:33:06;;;;;;;4.82;2.05;;;;;;;17.19;71.23;101791.22;7385051;19;20014;-60
2022/07/15 06:35:33;;;;;;;4.28;1.70;;;;;;;17.33;71.06;101794.34;7389000;19;20056;-60
2022/07/15 06:38:01;;;;;;;3.08;1.88;;;;;;;17.48;71.10;101785.06;7390479;19;20523;-59
2022/07/15 06:40:29;;;;;;;5.63;2.00;;;;;;;17.57;70.83;101785.72;7390776;19;20464;-60
2022/07/15 06:42:57;;;;;;;4.63;1.98;;;;;;;17.65;70.27;101783.88;7386891;19;20171;-58
2022/07/15 06:45:45;;;;;;;5.00;2.28;;;;;;;17.68;70.29;101776.72;7389515;19;20023;-59
2022/07/15 06:48:12;;;;;;;7.05;2.42;;;;;;;17.67;69.92;101780.69;7391690;19;20480;-60
2022/07/15 06:50:42;;;;;;;4.00;2.05;;;;;;;17.68;70.05;101782.31;7389386;19;20022;-59
2022/07/15 06:53:09;;;;;;;1.85;1.75;;;;;;;17.66;69.84;101795.91;7387997;19;20006;-59
2022/07/15 06:55:37;;;;;;;10.38;4.38;;;;;;;17.63;69.38;101789.03;7385095;19;20014;-60
2022/07/15 06:58:05;;;;;;;3.05;2.50;;;;;;;17.59;69.84;101783.34;7382404;19;20022;-60
2022/07/15 07:00:34;;;;;;;6.00;2.00;;;;;;;17.58;69.87;101784.53;7382143;19;20018;-57
2022/07/15 07:03:03;;;;;;;2.95;2.05;;;;;;;17.58;70.19;101778.91;7391431;19;20026;-57
2022/07/15 07:05:30;;;;;;;5.57;1.88;;;;;;;17.61;70.30;101783.78;7392157;19;20044;-59
2022/07/15 07:07:59;;;;;;;4.10;1.70;;;;;;;17.71;69.87;101782.41;7392872;19;20097;-58
2022/07/15 07:10:27;;;;;;;1.73;1.60;;;;;;;17.77;70.07;101774.50;7391721;19;20011;-60
2022/07/15 07:12:54;;;;;;;3.03;1.77;;;;;;;17.87;69.93;101773.94;7390913;19;20746;-61
2022/07/15 07:15:23;;;;;;;4.57;1.52;;;;;;;17.99;69.79;101776.56;7391844;19;20491;-59
2022/07/15 07:17:52;;;;;;;1.75;1.30;;;;;;;18.11;69.71;101779.19;7393321;19;20014;-59
2022/07/15 07:20:20;;;;;;;2.67;1.30;;;;;;;18.21;69.74;101778.59;7393363;19;20014;-59
2022/07/15 07:22:47;;;;;;;3.83;2.03;;;;;;;18.34;69.63;101771.63;7391731;19;20510;-57
2022/07/15 07:25:15;;;;;;;4.40;1.42;;;;;;;18.44;69.30;101779.41;7393063;19;20015;-59
2022/07/15 07:27:42;;;;;;;2.08;1.50;;;;;;;18.58;68.95;101764.88;7392642;19;20411;-62
2022/07/15 07:30:11;;;;;;;1.23;1.10;;;;;;;18.70;68.30;101776.69;7393409;19;20034;-60
2022/07/15 07:32:40;;;;;;;2.60;1.38;;;;;;;18.73;68.39;101767.53;7390228;19;20011;-59
2022/07/15 07:35:08;;;;;;;1.52;1.10;;;;;;;18.80;67.94;101770.44;7392539;19;20018;-58
2022/07/15 07:37:38;;;;;;;3.13;1.67;;;;;;;18.86;67.70;101779.34;7389422;19;20026;-59
2022/07/15 07:40:07;;;;;;;2.20;1.30;;;;;;;18.95;67.26;101765.06;7389017;19;20033;-55
2022/07/15 07:42:35;;;;;;;2.80;1.30;;;;;;;19.00;66.89;101770.34;7392122;19;20022;-61
2022/07/15 07:45:03;;;;;;;2.88;1.35;;;;;;;19.02;66.70;101782.00;7388878;19;20014;-60
2022/07/15 07:47:37;;;;;;;2.47;1.00;;;;;;;19.07;66.29;101768.44;7391892;19;20051;-59
2022/07/15 07:50:05;;;;;;;1.27;1.15;;;;;;;19.07;66.10;101770.44;7385783;19;20365;-57
2022/07/15 07:52:33;;;;;;;1.70;0.95;;;;;;;19.05;65.35;101775.63;7387014;19;20022;-60
2022/07/15 07:55:03;;;;;;;2.70;1.00;;;;;;;19.06;65.29;101780.06;7391245;19;20046;-61
2022/07/15 07:57:32;;;;;;;2.45;1.13;;;;;;;19.11;65.28;101769.34;7386856;19;20365;-58
2022/07/15 07:59:59;;;;;;;1.52;0.90;;;;;;;19.15;65.15;101766.56;7384694;19;20048;-61
2022/07/15 08:02:27;;;;;;;0.82;0.80;;;;;;;19.40;65.54;101759.34;7384640;19;20075;-60
2022/07/15 08:04:55;;;;;;;3.17;1.25;;;;;;;19.72;65.37;101769.00;7388587;19;20483;-59
2022/07/15 08:07:23;;;;;;;1.63;1.00;;;;;;;20.08;64.90;101758.97;7389459;19;20361;-61
2022/07/15 08:09:52;;;;;;;0.63;0.52;;;;;;;20.37;63.41;101766.53;7388056;19;20015;-60
2022/07/15 08:12:20;;;;;;;1.75;0.70;;;;;;;20.64;62.49;101769.97;7391041;19;20070;-60
2022/07/15 08:14:50;;;;;;;1.00;0.80;;;;;;;20.94;61.46;101769.81;7389896;19;20013;-56
2022/07/15 08:17:17;;;;;;;0.63;0.60;;;;;;;21.01;60.08;101767.88;7383419;19;20018;-57
2022/07/15 08:19:46;;;;;;;1.30;0.85;;;;;;;21.06;59.56;101770.34;7387334;19;20014;-58
2022/07/15 08:22:14;;;;;;;0.98;0.88;;;;;;;20.96;59.23;101771.03;7386678;19;20018;-58
2022/07/15 08:24:41;;;;;;;1.00;0.80;;;;;;;20.84;59.02;101759.28;7391679;19;20030;-57
2022/07/15 08:27:09;;;;;;;1.75;0.90;;;;;;;20.71;59.25;101770.03;7387013;19;20026;-60
2022/07/15 08:29:38;;;;;;;1.17;1.08;;;;;;;20.62;59.17;101775.97;7387010;19;20491;-59
2022/07/15 08:32:06;;;;;;;2.53;1.00;;;;;;;20.48;58.50;101761.00;7387193;19;20014;-61
2022/07/15 08:34:34;;;;;;;2.53;0.80;;;;;;;20.21;58.79;101768.72;7385138;19;20014;-58
2022/07/15 08:37:01;;;;;;;0.73;0.70;;;;;;;20.09;58.71;101759.78;7384608;19;20499;-61
2022/07/15 08:39:29;;;;;;;1.33;0.95;;;;;;;20.58;59.15;101760.28;7385572;19;20018;-59
2022/07/15 08:41:57;;;;;;;4.25;0.85;;;;;;;21.17;58.00;101757.16;7384798;19;20759;-57
2022/07/15 08:44:25;;;;;;;0.82;0.77;;;;;;;21.66;57.32;101758.56;7383675;19;20033;-55
2022/07/15 08:46:56;;;;;;;1.60;1.10;;;;;;;21.69;56.77;101764.25;7388555;19;20025;-57
2022/07/15 08:49:29;;;;;;;5.40;1.40;;;;;;;21.87;56.57;101763.53;7389292;19;20435;-58
2022/07/15 08:52:00;;;;;;;1.92;1.00;;;;;;;22.63;56.40;101756.44;7388005;19;20014;-57
2022/07/15 08:54:30;;;;;;;3.22;1.40;;;;;;;22.90;54.73;101751.19;7387333;19;20123;-60
2022/07/15 08:56:59;;;;;;;1.93;0.90;;;;;;;23.39;53.70;101767.25;7390395;19;20480;-57
2022/07/15 08:59:26;;;;;;;1.15;1.05;;;;;;;24.08;52.81;101758.88;7388931;19;20489;-57
2022/07/15 09:01:54;;;;;;;0.60;0.60;;;;;;;24.05;51.48;101765.34;7387942;19;20428;-58
2022/07/15 09:04:22;;;;;;;1.83;0.80;;;;;;;23.70;51.07;101768.34;7384537;19;20399;-57
2022/07/15 09:06:51;;;;;;;2.05;1.20;;;;;;;23.35;50.68;101770.06;7387922;19;20093;-56
2022/07/15 09:09:34;;;;;;;1.70;0.82;;;;;;;23.23;50.71;101772.50;7389933;19;20018;-57
2022/07/15 09:12:07;;;;;;;1.50;1.40;;;;;;;23.33;50.15;101760.38;7388693;19;20522;-59
2022/07/15 09:14:44;;;;;;;1.98;0.85;;;;;;;23.52;50.80;101774.91;7386306;19;20011;-60
2022/07/15 09:17:13;;;;;;;;;;;;;;;23.47;49.72;101777.31;7387081;19;20014;-56
2022/07/15 09:20:01;;;;;;;1.60;0.90;;;;;;;23.19;49.21;101766.88;7387265;19;19919;-58
2022/07/15 09:22:46;;;;;;;2.60;0.77;;;;;;;22.90;50.58;101770.97;7388840;19;20014;-56
2022/07/15 09:25:13;;;;;;;2.03;0.65;;;;;;;22.60;51.07;101774.16;7387705;19;20026;-58
2022/07/15 09:27:43;;;;;;;0.95;0.70;;;;;;;22.47;51.31;101766.47;7387806;19;20025;-57
2022/07/15 09:36:26;;;;;;;1.88;0.77;;;;;;;22.35;50.99;101770.50;7386464;19;20022;-58
2022/07/15 09:39:00;;;;;;;6.03;1.48;;;;;;;22.15;51.89;101775.72;7385636;19;20025;-58
2022/07/15 09:41:28;;;;;;;1.38;0.95;;;;;;;22.02;52.06;101782.94;7388603;19;20026;-59
2022/07/15 09:44:12;;;;;;;1.77;1.30;;;;;;;22.43;51.62;101775.75;7387958;19;20022;-59
2022/07/15 09:46:41;;;;;;;1.60;1.10;;;;;;;22.83;51.01;101770.94;7386552;19;20019;-57
2022/07/15 09:49:09;;;;;;;1.75;1.05;;;;;;;23.20;50.93;101768.47;7385383;19;20027;-61
2022/07/15 09:51:47;;;;;;;2.15;1.38;;;;;;;23.19;49.41;101775.38;7386630;19;20025;-60
2022/07/15 09:54:16;;;;;;;1.35;1.25;;;;;;;22.93;50.44;101775.78;7387082;19;20657;-58
2022/07/15 09:56:47;;;;;;;1.35;1.20;;;;;;;22.84;50.35;101773.38;7389750;19;20020;-58
2022/07/15 09:59:16;;;;;;;2.25;0.90;;;;;;;22.97;50.28;101773.78;7389688;19;20014;-58
2022/07/15 10:01:47;;;;;;;1.83;1.05;;;;;;;22.98;50.43;101783.88;7388046;19;20014;-58
2022/07/15 10:04:16;;;;;;;;;;;;;;;22.91;49.59;101781.03;7385386;19;20472;-58
2022/07/15 10:06:48;;;;;;;1.20;0.88;;;;;;;22.76;50.33;101787.91;7388365;19;19919;-57
2022/07/15 10:09:36;;;;;;;1.75;1.02;;;;;;;22.59;50.78;101788.66;7386719;19;20029;-57
2022/07/15 10:12:18;;;;;;;1.98;1.40;;;;;;;22.81;50.34;101781.84;7388544;19;20006;-56
2022/07/15 10:14:54;;;;;;;1.33;1.00;;;;;;;23.40;49.99;101785.84;7385019;19;20025;-57
2022/07/15 10:17:58;;;;;;;4.88;2.30;;;;;;;23.85;48.00;101787.69;7386131;19;20048;-57
2022/07/15 10:20:47;;;;;;;2.67;1.08;;;;;;;23.91;47.79;101790.88;7386724;19;20510;-56
2022/07/15 10:23:48;;;;;;;1.38;1.00;;;;;;;23.75;47.99;101782.88;7388059;19;20445;-56
2022/07/15 10:27:07;;;;;;;1.08;1.00;;;;;;;23.70;48.28;101786.13;7395857;19;20022;-57
2022/07/15 10:29:34;;;;;;;1.77;1.42;;;;;;;23.73;48.92;101778.84;7390662;19;20019;-57
2022/07/15 10:32:02;;;;;;;1.67;1.20;;;;;;;24.21;48.23;101785.50;7386642;19;20471;-60
2022/07/15 10:34:35;;;;;;;2.60;1.20;;;;;;;24.74;46.86;101776.63;7388152;19;20460;-60
2022/07/15 10:37:10;;;;;;;2.65;1.45;;;;;;;25.14;45.51;101780.75;7393897;19;20018;-55
2022/07/15 10:40:05;;;;;;;2.47;1.10;;;;;;;25.03;45.55;101789.34;7390965;19;20462;-55
2022/07/15 10:42:58;;;;;;;3.25;1.58;;;;;;;24.77;45.21;101779.44;7393147;19;20033;-58
2022/07/15 10:45:27;;;;;;;2.60;1.20;;;;;;;24.53;46.45;101793.78;7389690;19;20014;-60
2022/07/15 10:48:27;;;;;;;2.95;1.27;;;;;;;24.40;45.85;101795.50;7389111;19;20063;-60
2022/07/15 10:50:56;;;;;;;3.60;1.08;;;;;;;24.09;46.79;101795.25;7392168;19;20376;-58
2022/07/15 10:53:27;;;;;;;3.35;1.02;;;;;;;23.74;47.08;101803.09;7393017;19;20789;-54
2022/07/15 10:55:54;;;;;;;2.80;1.20;;;;;;;23.37;47.70;101804.41;7392191;19;20014;-57
2022/07/15 10:58:22;;;;;;;2.15;1.30;;;;;;;23.29;47.92;101799.16;7392318;19;20022;-54
2022/07/15 11:00:50;;;;;;;2.33;1.38;;;;;;;23.56;47.98;101801.13;7391030;19;20484;-57
2022/07/15 11:03:19;;;;;;;4.47;1.02;;;;;;;23.90;47.04;101794.94;7391897;19;20038;-58
2022/07/15 11:05:53;;;;;;;1.85;1.20;;;;;;;24.08;46.82;101795.66;7393779;19;20488;-56
2022/07/15 11:08:40;;;;;;;2.47;1.33;;;;;;;24.25;45.97;101796.81;7394888;19;20028;-58
2022/07/15 11:11:14;;;;;;;2.00;1.42;;;;;;;24.38;46.29;101786.63;7396236;19;20812;-61
2022/07/15 11:13:45;;;;;;;1.30;1.20;;;;;;;24.41;46.48;101788.63;7388573;19;20106;-57
2022/07/15 11:16:20;;;;;;;2.38;1.50;;;;;;;24.63;46.43;101788.03;7390102;19;20107;-58
2022/07/15 11:18:52;;;;;;;2.38;1.30;;;;;;;24.80;45.99;101792.00;7390793;19;20015;-57
2022/07/15 11:21:20;;;;;;;;;;;;;;;24.71;45.40;101783.94;7393965;19;20018;-59
2022/07/15 11:23:49;;;;;;;4.07;1.50;;;;;;;24.70;46.59;101793.63;7385841;19;20348;-57
2022/07/15 11:26:18;;;;;;;2.67;1.50;;;;;;;24.69;46.28;101799.72;7392976;19;20103;-56
2022/07/15 11:28:50;;;;;;;1.88;1.40;;;;;;;24.43;45.81;101795.47;7387769;19;20014;-57
2022/07/15 11:31:18;;;;;;;3.33;1.40;;;;;;;24.22;46.05;101801.28;7388440;19;20015;-61
2022/07/15 11:33:46;;;;;;;2.28;1.75;;;;;;;24.00;46.65;101794.09;7386050;19;20026;-58
2022/07/15 11:36:18;;;;;;;2.22;1.55;;;;;;;23.86;46.95;101791.31;7390785;19;20532;-58
2022/07/15 11:38:46;;;;;;;1.50;1.30;;;;;;;23.55;47.62;101819.31;7391932;19;20019;-58
2022/07/15 11:46:53;;;;;;;1.77;1.65;;;;;;;23.12;48.61;101806.44;7384158;19;20014;-59
2022/07/15 11:49:38;;;;;;;2.28;1.45;;;;;;;23.24;48.46;101802.41;7390104;19;20022;-57
2022/07/15 11:52:07;;;;;;;2.25;2.03;;;;;;;23.42;47.87;101798.34;7392060;19;20018;-60
2022/07/15 11:54:38;;;;;;;5.07;1.98;;;;;;;23.46;48.19;101816.09;7388333;19;20022;-59
2022/07/15 11:57:11;;;;;;;3.00;1.60;;;;;;;23.52;47.86;101802.34;7387730;19;20014;-57